QFA93Y YSSY-YMML
Flight info
| Callsign | QFA93Y |
|---|---|
| Flight time | 1h 5m |
| Altitude | 36000 |
| Route | WOL2/34L WOL H65 LEECE Q29 ML DCT YMML/27 |
| Aircraft | B78X/H-VGDW/C |
Departure
| Time | 2026-05-06 13:17 |
|---|---|
| Airport | Sydney Kingsford Smith International Airport (YSSY) |
Arrival
| Time | 2026-05-06 14:22 |
|---|---|
| Airport | Melbourne Airport (YMML) |
| Time | Latitude | Longitude | Altitude | Speed | Heading |
|---|---|---|---|---|---|
| 2026-05-06 12:33 | -33.93098 | 151.17626 | 34 ft | 0 kts | 166° |
| 2026-05-06 12:52 | -33.93085 | 151.17623 | 35 ft | 2 kts | 166° |
| 2026-05-06 12:52 | -33.93069 | 151.17618 | 36 ft | 2 kts | 166° |
| 2026-05-06 12:52 | -33.93054 | 151.17612 | 35 ft | 2 kts | 149° |
| 2026-05-06 12:52 | -33.93036 | 151.17597 | 35 ft | 4 kts | 133° |
| 2026-05-06 12:53 | -33.93018 | 151.17574 | 35 ft | 4 kts | 133° |
| 2026-05-06 12:53 | -33.92998 | 151.17548 | 35 ft | 4 kts | 135° |
| 2026-05-06 12:53 | -33.92984 | 151.17533 | 35 ft | 0 kts | 180° |
| 2026-05-06 12:56 | -33.92985 | 151.17533 | 35 ft | 0 kts | 180° |
| 2026-05-06 12:56 | -33.92995 | 151.17533 | 33 ft | 2 kts | 180° |
| 2026-05-06 12:57 | -33.93018 | 151.17535 | 33 ft | 4 kts | 176° |
| 2026-05-06 12:57 | -33.93053 | 151.17531 | 36 ft | 6 kts | 190° |
| 2026-05-06 12:57 | -33.93101 | 151.17523 | 35 ft | 8 kts | 182° |
| 2026-05-06 12:57 | -33.93158 | 151.17533 | 36 ft | 9 kts | 169° |
| 2026-05-06 12:58 | -33.93224 | 151.17551 | 36 ft | 10 kts | 167° |
| 2026-05-06 12:58 | -33.93301 | 151.17572 | 36 ft | 12 kts | 168° |
| 2026-05-06 12:58 | -33.93387 | 151.17591 | 36 ft | 13 kts | 173° |
| 2026-05-06 12:58 | -33.93485 | 151.17587 | 34 ft | 16 kts | 175° |
| 2026-05-06 12:59 | -33.93596 | 151.17616 | 35 ft | 17 kts | 165° |
| 2026-05-06 12:59 | -33.93703 | 151.17674 | 32 ft | 19 kts | 157° |
| 2026-05-06 12:59 | -33.93833 | 151.17719 | 28 ft | 9 kts | 147° |
| 2026-05-06 12:59 | -33.93852 | 151.17739 | 28 ft | 0 kts | 138° |
| 2026-05-06 13:00 | -33.93854 | 151.17740 | 31 ft | 1 kts | 138° |
| 2026-05-06 13:00 | -33.93867 | 151.17754 | 31 ft | 6 kts | 141° |
| 2026-05-06 13:00 | -33.93949 | 151.17792 | 28 ft | 18 kts | 166° |
| 2026-05-06 13:00 | -33.94076 | 151.17826 | 29 ft | 19 kts | 168° |
| 2026-05-06 13:01 | -33.94203 | 151.17859 | 30 ft | 19 kts | 167° |
| 2026-05-06 13:01 | -33.94334 | 151.17893 | 31 ft | 20 kts | 168° |
| 2026-05-06 13:01 | -33.94472 | 151.17899 | 30 ft | 20 kts | 197° |
| 2026-05-06 13:01 | -33.94606 | 151.17905 | 31 ft | 19 kts | 167° |
| 2026-05-06 13:02 | -33.94740 | 151.17943 | 29 ft | 20 kts | 169° |
| 2026-05-06 13:02 | -33.94884 | 151.17976 | 28 ft | 22 kts | 168° |
| 2026-05-06 13:02 | -33.95031 | 151.18014 | 31 ft | 17 kts | 168° |
| 2026-05-06 13:02 | -33.95041 | 151.18017 | 31 ft | 0 kts | 168° |
| 2026-05-06 13:05 | -33.95057 | 151.18021 | 32 ft | 15 kts | 168° |
| 2026-05-06 13:05 | -33.95174 | 151.18030 | 31 ft | 8 kts | 211° |
| 2026-05-06 13:06 | -33.95202 | 151.17967 | 30 ft | 9 kts | 253° |
| 2026-05-06 13:06 | -33.95213 | 151.17911 | 30 ft | 0 kts | 258° |
| 2026-05-06 13:07 | -33.95214 | 151.17907 | 30 ft | 2 kts | 258° |
| 2026-05-06 13:07 | -33.95220 | 151.17872 | 29 ft | 16 kts | 258° |
| 2026-05-06 13:07 | -33.95251 | 151.17697 | 28 ft | 22 kts | 258° |
| 2026-05-06 13:07 | -33.95353 | 151.17586 | 28 ft | 21 kts | 179° |
| 2026-05-06 13:08 | -33.95496 | 151.17619 | 27 ft | 21 kts | 168° |
| 2026-05-06 13:08 | -33.95640 | 151.17656 | 29 ft | 21 kts | 167° |
| 2026-05-06 13:08 | -33.95779 | 151.17693 | 30 ft | 21 kts | 167° |
| 2026-05-06 13:08 | -33.95926 | 151.17732 | 28 ft | 23 kts | 168° |
| 2026-05-06 13:09 | -33.96079 | 151.17771 | 30 ft | 22 kts | 168° |
| 2026-05-06 13:09 | -33.96235 | 151.17810 | 28 ft | 24 kts | 168° |
| 2026-05-06 13:09 | -33.96391 | 151.17852 | 29 ft | 14 kts | 164° |
| 2026-05-06 13:09 | -33.96433 | 151.17908 | 30 ft | 0 kts | 108° |
| 2026-05-06 13:14 | -33.96434 | 151.17911 | 30 ft | 1 kts | 107° |
| 2026-05-06 13:15 | -33.96429 | 151.17986 | 30 ft | 12 kts | 78° |
| 2026-05-06 13:15 | -33.96388 | 151.18054 | 30 ft | 8 kts | 12° |
| 2026-05-06 13:15 | -33.96362 | 151.18048 | 30 ft | 0 kts | 348° |
| 2026-05-06 13:15 | -33.96361 | 151.18048 | 30 ft | 0 kts | 348° |
| 2026-05-06 13:16 | -33.96360 | 151.18047 | 30 ft | 0 kts | 348° |
| 2026-05-06 13:16 | -33.96186 | 151.18002 | 27 ft | 69 kts | 348° |
| 2026-05-06 13:16 | -33.95418 | 151.17799 | 29 ft | 153 kts | 346° |
| 2026-05-06 13:16 | -33.94243 | 151.17465 | 396 ft | 194 kts | 347° |
| 2026-05-06 13:17 | -33.92898 | 151.17076 | 1486 ft | 192 kts | 341° |
| 2026-05-06 13:17 | -33.91738 | 151.16089 | 1970 ft | 235 kts | 303° |
| 2026-05-06 13:17 | -33.91217 | 151.14232 | 3360 ft | 226 kts | 285° |
| 2026-05-06 13:17 | -33.90738 | 151.12298 | 4305 ft | 251 kts | 290° |
| 2026-05-06 13:18 | -33.90113 | 151.10292 | 4827 ft | 256 kts | 291° |
| 2026-05-06 13:18 | -33.89485 | 151.08309 | 5016 ft | 256 kts | 291° |
| 2026-05-06 13:18 | -33.88869 | 151.06277 | 5612 ft | 258 kts | 290° |
| 2026-05-06 13:18 | -33.88266 | 151.04271 | 6939 ft | 256 kts | 290° |
| 2026-05-06 13:19 | -33.87651 | 151.02240 | 8229 ft | 261 kts | 290° |
| 2026-05-06 13:19 | -33.87019 | 151.00160 | 9488 ft | 268 kts | 290° |
| 2026-05-06 13:19 | -33.86706 | 150.97933 | 10563 ft | 279 kts | 264° |
| 2026-05-06 13:19 | -33.87453 | 150.95778 | 11288 ft | 305 kts | 233° |
| 2026-05-06 13:20 | -33.89209 | 150.94184 | 11982 ft | 335 kts | 206° |
| 2026-05-06 13:20 | -33.91554 | 150.93623 | 12752 ft | 360 kts | 182° |
| 2026-05-06 13:20 | -33.94061 | 150.94246 | 13793 ft | 376 kts | 160° |
| 2026-05-06 13:20 | -33.96410 | 150.95727 | 14730 ft | 385 kts | 154° |
| 2026-05-06 13:21 | -33.98941 | 150.96734 | 15717 ft | 383 kts | 176° |
| 2026-05-06 13:21 | -34.01584 | 150.96581 | 16713 ft | 380 kts | 196° |
| 2026-05-06 13:21 | -34.04187 | 150.95879 | 17659 ft | 386 kts | 197° |
| 2026-05-06 13:21 | -34.06778 | 150.95092 | 18572 ft | 390 kts | 199° |
| 2026-05-06 13:22 | -34.09416 | 150.94184 | 19394 ft | 395 kts | 200° |
| 2026-05-06 13:22 | -34.12090 | 150.93289 | 20223 ft | 401 kts | 199° |
| 2026-05-06 13:22 | -34.14810 | 150.92430 | 21044 ft | 406 kts | 199° |
| 2026-05-06 13:22 | -34.17532 | 150.91568 | 21826 ft | 410 kts | 199° |
| 2026-05-06 13:23 | -34.20312 | 150.90660 | 22601 ft | 415 kts | 200° |
| 2026-05-06 13:23 | -34.23122 | 150.89740 | 23362 ft | 420 kts | 200° |
| 2026-05-06 13:23 | -34.25965 | 150.88821 | 24009 ft | 424 kts | 200° |
| 2026-05-06 13:23 | -34.28804 | 150.87905 | 24603 ft | 428 kts | 200° |
| 2026-05-06 13:24 | -34.31703 | 150.86963 | 25199 ft | 432 kts | 200° |
| 2026-05-06 13:24 | -34.34628 | 150.86010 | 25792 ft | 436 kts | 200° |
| 2026-05-06 13:24 | -34.37574 | 150.85052 | 26361 ft | 440 kts | 200° |
| 2026-05-06 13:24 | -34.40549 | 150.84086 | 26949 ft | 443 kts | 201° |
| 2026-05-06 13:25 | -34.43507 | 150.83122 | 27496 ft | 447 kts | 201° |
| 2026-05-06 13:25 | -34.46547 | 150.82130 | 27979 ft | 453 kts | 201° |
| 2026-05-06 13:25 | -34.49582 | 150.81139 | 28050 ft | 453 kts | 201° |
| 2026-05-06 13:25 | -34.52526 | 150.79894 | 28063 ft | 441 kts | 211° |
| 2026-05-06 13:26 | -34.55153 | 150.78096 | 28360 ft | 436 kts | 221° |
| 2026-05-06 13:26 | -34.57498 | 150.75773 | 28939 ft | 432 kts | 231° |
| 2026-05-06 13:26 | -34.59459 | 150.73027 | 29520 ft | 427 kts | 239° |
| 2026-05-06 13:26 | -34.61223 | 150.70142 | 30035 ft | 431 kts | 239° |
| 2026-05-06 13:27 | -34.63016 | 150.67190 | 30522 ft | 434 kts | 239° |
| 2026-05-06 13:27 | -34.64798 | 150.64210 | 30977 ft | 436 kts | 240° |
| 2026-05-06 13:27 | -34.66567 | 150.61253 | 31419 ft | 439 kts | 240° |
| 2026-05-06 13:27 | -34.68379 | 150.58243 | 31848 ft | 442 kts | 240° |
| 2026-05-06 13:28 | -34.70199 | 150.55221 | 32292 ft | 444 kts | 240° |
| 2026-05-06 13:28 | -34.72027 | 150.52171 | 32709 ft | 446 kts | 240° |
| 2026-05-06 13:28 | -34.73867 | 150.49097 | 33117 ft | 449 kts | 240° |
| 2026-05-06 13:28 | -34.75687 | 150.46058 | 33508 ft | 451 kts | 240° |
| 2026-05-06 13:29 | -34.77544 | 150.42957 | 33868 ft | 453 kts | 240° |
| 2026-05-06 13:29 | -34.79401 | 150.39852 | 34331 ft | 452 kts | 240° |
| 2026-05-06 13:29 | -34.81251 | 150.36756 | 34842 ft | 449 kts | 240° |
| 2026-05-06 13:29 | -34.83067 | 150.33714 | 35338 ft | 447 kts | 240° |
| 2026-05-06 13:30 | -34.84893 | 150.30650 | 35808 ft | 445 kts | 241° |
| 2026-05-06 13:30 | -34.86716 | 150.27586 | 36065 ft | 449 kts | 241° |
| 2026-05-06 13:30 | -34.88555 | 150.24495 | 36056 ft | 444 kts | 240° |
| 2026-05-06 13:31 | -34.92158 | 150.18439 | 36065 ft | 444 kts | 241° |
| 2026-05-06 13:31 | -34.95782 | 150.12329 | 36071 ft | 444 kts | 241° |
| 2026-05-06 13:32 | -34.99406 | 150.06215 | 36073 ft | 444 kts | 241° |
| 2026-05-06 13:32 | -35.03012 | 150.00116 | 36084 ft | 445 kts | 241° |
| 2026-05-06 13:33 | -35.06622 | 149.94002 | 36090 ft | 445 kts | 241° |
| 2026-05-06 13:33 | -35.10242 | 149.87862 | 36094 ft | 445 kts | 241° |
| 2026-05-06 13:34 | -35.13859 | 149.81716 | 36094 ft | 444 kts | 241° |
| 2026-05-06 13:34 | -35.17444 | 149.75613 | 36092 ft | 444 kts | 242° |
| 2026-05-06 13:35 | -35.21050 | 149.69465 | 36093 ft | 444 kts | 242° |
| 2026-05-06 13:35 | -35.24648 | 149.63319 | 36096 ft | 443 kts | 242° |
| 2026-05-06 13:36 | -35.28221 | 149.57205 | 36097 ft | 444 kts | 242° |
| 2026-05-06 13:36 | -35.31821 | 149.51034 | 36093 ft | 444 kts | 242° |
| 2026-05-06 13:37 | -35.35408 | 149.44875 | 36095 ft | 445 kts | 242° |
| 2026-05-06 13:37 | -35.39005 | 149.38689 | 36094 ft | 445 kts | 242° |
| 2026-05-06 13:38 | -35.42582 | 149.32524 | 36092 ft | 446 kts | 242° |
| 2026-05-06 13:38 | -35.46181 | 149.26311 | 36093 ft | 446 kts | 242° |
| 2026-05-06 13:39 | -35.49773 | 149.20099 | 36096 ft | 446 kts | 242° |
| 2026-05-06 13:39 | -35.53344 | 149.13912 | 36091 ft | 446 kts | 242° |
| 2026-05-06 13:40 | -35.56938 | 149.07677 | 36106 ft | 445 kts | 242° |
| 2026-05-06 13:40 | -35.60514 | 149.01459 | 36107 ft | 445 kts | 242° |
| 2026-05-06 13:41 | -35.64065 | 148.95274 | 36108 ft | 445 kts | 242° |
| 2026-05-06 13:41 | -35.67638 | 148.89039 | 36109 ft | 445 kts | 242° |
| 2026-05-06 13:42 | -35.71191 | 148.82829 | 36110 ft | 446 kts | 242° |
| 2026-05-06 13:42 | -35.74767 | 148.76567 | 36094 ft | 446 kts | 242° |
| 2026-05-06 13:43 | -35.78314 | 148.70344 | 36113 ft | 446 kts | 242° |
| 2026-05-06 13:43 | -35.81883 | 148.64073 | 36098 ft | 446 kts | 243° |
| 2026-05-06 13:44 | -35.85429 | 148.57831 | 36105 ft | 446 kts | 243° |
| 2026-05-06 13:44 | -35.88989 | 148.51550 | 36113 ft | 446 kts | 243° |
| 2026-05-06 13:45 | -35.92535 | 148.45254 | 36116 ft | 446 kts | 243° |
| 2026-05-06 13:45 | -35.97825 | 148.35853 | 36110 ft | 446 kts | 243° |
| 2026-05-06 13:46 | -36.01360 | 148.29548 | 36105 ft | 446 kts | 243° |
| 2026-05-06 13:46 | -36.04894 | 148.23245 | 36122 ft | 446 kts | 243° |
| 2026-05-06 13:47 | -36.08425 | 148.16925 | 36114 ft | 446 kts | 243° |
| 2026-05-06 13:47 | -36.11948 | 148.10615 | 36118 ft | 445 kts | 243° |
| 2026-05-06 13:48 | -36.15449 | 148.04358 | 36115 ft | 445 kts | 243° |
| 2026-05-06 13:48 | -36.18976 | 147.98045 | 36112 ft | 444 kts | 243° |
| 2026-05-06 13:49 | -36.22490 | 147.91739 | 36107 ft | 444 kts | 243° |
| 2026-05-06 13:49 | -36.25977 | 147.85476 | 36095 ft | 443 kts | 243° |
| 2026-05-06 13:50 | -36.29475 | 147.79176 | 36107 ft | 442 kts | 243° |
| 2026-05-06 13:50 | -36.32946 | 147.72918 | 36101 ft | 441 kts | 243° |
| 2026-05-06 13:51 | -36.36422 | 147.66620 | 36091 ft | 442 kts | 243° |
| 2026-05-06 13:51 | -36.39899 | 147.60310 | 36088 ft | 442 kts | 243° |
| 2026-05-06 13:52 | -36.43354 | 147.54030 | 36086 ft | 442 kts | 243° |
| 2026-05-06 13:52 | -36.46820 | 147.47716 | 36085 ft | 442 kts | 243° |
| 2026-05-06 13:53 | -36.50282 | 147.41400 | 36081 ft | 441 kts | 243° |
| 2026-05-06 13:53 | -36.53723 | 147.35110 | 36085 ft | 441 kts | 244° |
| 2026-05-06 13:54 | -36.57157 | 147.28820 | 36072 ft | 440 kts | 244° |
| 2026-05-06 13:54 | -36.60589 | 147.22521 | 36076 ft | 440 kts | 244° |
| 2026-05-06 13:55 | -36.64038 | 147.16183 | 36074 ft | 440 kts | 244° |
| 2026-05-06 13:55 | -36.67476 | 147.09851 | 36070 ft | 440 kts | 244° |
| 2026-05-06 13:56 | -36.70879 | 147.03570 | 36071 ft | 439 kts | 244° |
| 2026-05-06 13:56 | -36.74295 | 146.97255 | 36067 ft | 439 kts | 244° |
| 2026-05-06 13:57 | -36.77684 | 146.90979 | 36070 ft | 438 kts | 244° |
| 2026-05-06 13:57 | -36.81085 | 146.84667 | 36062 ft | 438 kts | 244° |
| 2026-05-06 13:58 | -36.84465 | 146.78385 | 36066 ft | 437 kts | 244° |
| 2026-05-06 13:58 | -36.87294 | 146.73116 | 36070 ft | 435 kts | 244° |
| 2026-05-06 13:59 | -36.90652 | 146.66851 | 36071 ft | 435 kts | 244° |
| 2026-05-06 13:59 | -36.94015 | 146.60566 | 36080 ft | 434 kts | 244° |
| 2026-05-06 14:00 | -36.97368 | 146.54287 | 36082 ft | 433 kts | 244° |
| 2026-05-06 14:00 | -37.00699 | 146.48039 | 36090 ft | 433 kts | 244° |
| 2026-05-06 14:01 | -37.04042 | 146.41756 | 36090 ft | 433 kts | 244° |
| 2026-05-06 14:01 | -37.07384 | 146.35462 | 36102 ft | 433 kts | 244° |
| 2026-05-06 14:02 | -37.10693 | 146.29221 | 36115 ft | 432 kts | 244° |
| 2026-05-06 14:02 | -37.14030 | 146.22911 | 36123 ft | 433 kts | 245° |
| 2026-05-06 14:03 | -37.15677 | 146.19799 | 35983 ft | 429 kts | 245° |
| 2026-05-06 14:03 | -37.17320 | 146.16692 | 35479 ft | 426 kts | 245° |
| 2026-05-06 14:03 | -37.18954 | 146.13592 | 34950 ft | 421 kts | 246° |
| 2026-05-06 14:03 | -37.20583 | 146.10488 | 34012 ft | 429 kts | 246° |
| 2026-05-06 14:04 | -37.22211 | 146.07400 | 33751 ft | 418 kts | 246° |
| 2026-05-06 14:04 | -37.23780 | 146.04445 | 33305 ft | 404 kts | 247° |
| 2026-05-06 14:04 | -37.25310 | 146.01531 | 32540 ft | 395 kts | 248° |
| 2026-05-06 14:04 | -37.26813 | 145.98640 | 31340 ft | 396 kts | 248° |
| 2026-05-06 14:05 | -37.28333 | 145.95725 | 30120 ft | 400 kts | 247° |
| 2026-05-06 14:05 | -37.29871 | 145.92804 | 28729 ft | 398 kts | 247° |
| 2026-05-06 14:05 | -37.31366 | 145.89973 | 27421 ft | 389 kts | 247° |
| 2026-05-06 14:05 | -37.32841 | 145.87171 | 26146 ft | 378 kts | 248° |
| 2026-05-06 14:06 | -37.34268 | 145.84451 | 24937 ft | 367 kts | 248° |
| 2026-05-06 14:06 | -37.35652 | 145.81811 | 23767 ft | 357 kts | 248° |
| 2026-05-06 14:06 | -37.37008 | 145.79220 | 22422 ft | 349 kts | 248° |
| 2026-05-06 14:06 | -37.38307 | 145.76739 | 21291 ft | 338 kts | 248° |
| 2026-05-06 14:07 | -37.39578 | 145.74319 | 20364 ft | 323 kts | 248° |
| 2026-05-06 14:07 | -37.40800 | 145.71981 | 19484 ft | 314 kts | 248° |
| 2026-05-06 14:07 | -37.41974 | 145.69721 | 18651 ft | 311 kts | 248° |
| 2026-05-06 14:07 | -37.43161 | 145.67442 | 17764 ft | 307 kts | 247° |
| 2026-05-06 14:08 | -37.44336 | 145.65189 | 16965 ft | 312 kts | 246° |
| 2026-05-06 14:08 | -37.45517 | 145.62917 | 16234 ft | 315 kts | 245° |
| 2026-05-06 14:08 | -37.46735 | 145.60605 | 15480 ft | 317 kts | 245° |
| 2026-05-06 14:08 | -37.47958 | 145.58289 | 14751 ft | 313 kts | 244° |
| 2026-05-06 14:09 | -37.49145 | 145.56038 | 14017 ft | 301 kts | 243° |
| 2026-05-06 14:09 | -37.50252 | 145.53933 | 13201 ft | 284 kts | 243° |
| 2026-05-06 14:09 | -37.51320 | 145.51890 | 12372 ft | 272 kts | 243° |
| 2026-05-06 14:09 | -37.52341 | 145.49933 | 11558 ft | 263 kts | 242° |
| 2026-05-06 14:10 | -37.53333 | 145.48034 | 10781 ft | 255 kts | 241° |
| 2026-05-06 14:10 | -37.54301 | 145.46185 | 10009 ft | 249 kts | 240° |
| 2026-05-06 14:10 | -37.55231 | 145.44404 | 9261 ft | 241 kts | 239° |
| 2026-05-06 14:10 | -37.56126 | 145.42698 | 9024 ft | 227 kts | 239° |
| 2026-05-06 14:11 | -37.57016 | 145.40989 | 9029 ft | 230 kts | 239° |
| 2026-05-06 14:11 | -37.57894 | 145.39307 | 9036 ft | 232 kts | 239° |
| 2026-05-06 14:11 | -37.58782 | 145.37603 | 8532 ft | 238 kts | 238° |
| 2026-05-06 14:11 | -37.59683 | 145.35874 | 8102 ft | 236 kts | 238° |
| 2026-05-06 14:12 | -37.60580 | 145.34158 | 7780 ft | 229 kts | 237° |
| 2026-05-06 14:12 | -37.61443 | 145.32501 | 7434 ft | 223 kts | 237° |
| 2026-05-06 14:12 | -37.62288 | 145.30878 | 7105 ft | 220 kts | 237° |
| 2026-05-06 14:12 | -37.63118 | 145.29283 | 6767 ft | 218 kts | 237° |
| 2026-05-06 14:13 | -37.63949 | 145.27686 | 6434 ft | 215 kts | 237° |
| 2026-05-06 14:13 | -37.64668 | 145.26051 | 6083 ft | 213 kts | 250° |
| 2026-05-06 14:13 | -37.64927 | 145.24277 | 5730 ft | 199 kts | 259° |
| 2026-05-06 14:13 | -37.65094 | 145.22619 | 5421 ft | 182 kts | 258° |
| 2026-05-06 14:14 | -37.65252 | 145.21094 | 5083 ft | 169 kts | 258° |
| 2026-05-06 14:14 | -37.65403 | 145.19652 | 4732 ft | 161 kts | 258° |
| 2026-05-06 14:14 | -37.65548 | 145.18270 | 4376 ft | 156 kts | 258° |
| 2026-05-06 14:14 | -37.65686 | 145.16947 | 4029 ft | 151 kts | 259° |
| 2026-05-06 14:15 | -37.65822 | 145.15638 | 3670 ft | 148 kts | 259° |
| 2026-05-06 14:15 | -37.65953 | 145.14357 | 3317 ft | 146 kts | 261° |
| 2026-05-06 14:15 | -37.66083 | 145.13093 | 2956 ft | 144 kts | 260° |
| 2026-05-06 14:15 | -37.66210 | 145.11861 | 2611 ft | 141 kts | 261° |
| 2026-05-06 14:16 | -37.66329 | 145.10697 | 2518 ft | 122 kts | 260° |
| 2026-05-06 14:16 | -37.66421 | 145.09778 | 2458 ft | 91 kts | 260° |
| 2026-05-06 14:16 | -37.66513 | 145.08907 | 2481 ft | 109 kts | 259° |
| 2026-05-06 14:16 | -37.66617 | 145.07904 | 2524 ft | 117 kts | 259° |
| 2026-05-06 14:17 | -37.66723 | 145.06871 | 2533 ft | 119 kts | 259° |
| 2026-05-06 14:17 | -37.66826 | 145.05859 | 2534 ft | 118 kts | 259° |
| 2026-05-06 14:17 | -37.67007 | 145.04844 | 2506 ft | 116 kts | 253° |
| 2026-05-06 14:17 | -37.67217 | 145.03842 | 2511 ft | 117 kts | 256° |
| 2026-05-06 14:18 | -37.67205 | 145.02794 | 2512 ft | 119 kts | 268° |
| 2026-05-06 14:18 | -37.67183 | 145.01758 | 2519 ft | 120 kts | 268° |
| 2026-05-06 14:18 | -37.67140 | 145.00716 | 2520 ft | 118 kts | 269° |
| 2026-05-06 14:18 | -37.67088 | 144.99671 | 2521 ft | 118 kts | 269° |
| 2026-05-06 14:19 | -37.67026 | 144.98639 | 2521 ft | 119 kts | 269° |
| 2026-05-06 14:19 | -37.66966 | 144.97603 | 2496 ft | 121 kts | 269° |
| 2026-05-06 14:19 | -37.66905 | 144.96563 | 2328 ft | 117 kts | 269° |
| 2026-05-06 14:19 | -37.66845 | 144.95519 | 2162 ft | 117 kts | 269° |
| 2026-05-06 14:20 | -37.66784 | 144.94468 | 2002 ft | 120 kts | 269° |
| 2026-05-06 14:20 | -37.66727 | 144.93434 | 1838 ft | 120 kts | 269° |
| 2026-05-06 14:20 | -37.66669 | 144.92378 | 1665 ft | 122 kts | 270° |
| 2026-05-06 14:20 | -37.66607 | 144.91308 | 1486 ft | 121 kts | 270° |
| 2026-05-06 14:21 | -37.66543 | 144.90244 | 1307 ft | 121 kts | 270° |
| 2026-05-06 14:21 | -37.66484 | 144.89138 | 1121 ft | 124 kts | 270° |
| 2026-05-06 14:21 | -37.66427 | 144.88045 | 976 ft | 126 kts | 271° |
| 2026-05-06 14:21 | -37.66352 | 144.86928 | 790 ft | 126 kts | 272° |
| 2026-05-06 14:22 | -37.66278 | 144.85840 | 631 ft | 126 kts | 274° |
| 2026-05-06 14:22 | -37.66214 | 144.84741 | 459 ft | 125 kts | 274° |
| 2026-05-06 14:22 | -37.66158 | 144.83789 | 419 ft | 81 kts | 273° |
| 2026-05-06 14:22 | -37.66142 | 144.83399 | 411 ft | 24 kts | 273° |
| 2026-05-06 14:23 | -37.66132 | 144.83195 | 418 ft | 22 kts | 274° |
| 2026-05-06 14:23 | -37.66147 | 144.83010 | 411 ft | 21 kts | 252° |
| 2026-05-06 14:23 | -37.66200 | 144.82854 | 409 ft | 14 kts | 244° |
| 2026-05-06 14:23 | -37.66215 | 144.82813 | 407 ft | 5 kts | 244° |
| 2026-05-06 14:24 | -37.66231 | 144.82772 | 405 ft | 8 kts | 244° |
| 2026-05-06 14:24 | -37.66294 | 144.82692 | 404 ft | 15 kts | 206° |
| 2026-05-06 14:24 | -37.66388 | 144.82697 | 409 ft | 13 kts | 153° |
| 2026-05-06 14:24 | -37.66443 | 144.82789 | 407 ft | 14 kts | 102° |
| 2026-05-06 14:25 | -37.66452 | 144.82911 | 415 ft | 15 kts | 94° |
| 2026-05-06 14:25 | -37.66459 | 144.83048 | 416 ft | 16 kts | 94° |
| 2026-05-06 14:25 | -37.66468 | 144.83199 | 413 ft | 18 kts | 94° |
| 2026-05-06 14:25 | -37.66477 | 144.83368 | 408 ft | 20 kts | 93° |
| 2026-05-06 14:26 | -37.66488 | 144.83555 | 409 ft | 23 kts | 94° |
| 2026-05-06 14:26 | -37.66500 | 144.83758 | 407 ft | 24 kts | 94° |
| 2026-05-06 14:26 | -37.66550 | 144.83928 | 404 ft | 19 kts | 145° |
| 2026-05-06 14:26 | -37.66683 | 144.83969 | 407 ft | 21 kts | 156° |
| 2026-05-06 14:27 | -37.66715 | 144.84072 | 407 ft | 11 kts | 83° |
| 2026-05-06 14:27 | -37.66706 | 144.84164 | 409 ft | 11 kts | 82° |
| 2026-05-06 14:27 | -37.66692 | 144.84273 | 405 ft | 13 kts | 81° |
| 2026-05-06 14:27 | -37.66677 | 144.84394 | 407 ft | 15 kts | 81° |
| 2026-05-06 14:28 | -37.66660 | 144.84530 | 413 ft | 16 kts | 82° |
| 2026-05-06 14:28 | -37.66644 | 144.84681 | 413 ft | 18 kts | 82° |
| 2026-05-06 14:28 | -37.66590 | 144.84798 | 412 ft | 15 kts | 30° |
| 2026-05-06 14:28 | -37.66543 | 144.84900 | 420 ft | 15 kts | 82° |
| 2026-05-06 14:29 | -37.66556 | 144.85027 | 412 ft | 15 kts | 131° |
| 2026-05-06 14:29 | -37.66613 | 144.85080 | 414 ft | 6 kts | 121° |
| 2026-05-06 14:29 | -37.66601 | 144.85163 | 412 ft | 11 kts | 73° |
| 2026-05-06 14:29 | -37.66577 | 144.85260 | 412 ft | 12 kts | 74° |
| 2026-05-06 14:30 | -37.66608 | 144.85345 | 417 ft | 11 kts | 153° |
| 2026-05-06 14:30 | -37.66686 | 144.85365 | 413 ft | 13 kts | 172° |
| 2026-05-06 14:30 | -37.66760 | 144.85379 | 408 ft | 3 kts | 174° |
| 2026-05-06 14:30 | -37.66780 | 144.85366 | 408 ft | 3 kts | 218° |
| 2026-05-06 14:31 | -37.66785 | 144.85349 | 408 ft | 2 kts | 254° |
| 2026-05-06 14:31 | -37.66787 | 144.85330 | 408 ft | 3 kts | 260° |
| 2026-05-06 14:31 | -37.66790 | 144.85298 | 409 ft | 4 kts | 262° |
| 2026-05-06 14:31 | -37.66792 | 144.85285 | 407 ft | 0 kts | 262° |